Scorpio — WDH7833 — position and weather

sailwx.info

Track history (hours):
 
Tides and Currents Weather Stations Pressure Air Temp Water Temp Dewpoint Dewpoint Depression Visibility Wind Speed Wind Dir Waves Ship Positions

Scorpio

Owner: Bruno, Thomas R, Wayside, NJ. More information available from US FCC via Universal Licensing System and Coast Guard Vessel Documentation Center.

Last reported at 2017-Sep-28 18:01 UTC. Time now 2017-Oct-19 05:33 UTC.
Position N 40°35' W 074°02'.
Warning: this ship's position is 20 days out of date.

Type: Pleasure craft. MMSI: 367652050.

Date/timePositionNaut miles runAvg speedWind from/ knotsBaromVisibWave heightAir tempDewpointWater temp
2017-Sep-28 18:01N 40°35' W 074°02'017.2
2017-Sep-28 18:00N 40°36' W 074°02'714.7
2017-Sep-28 17:30N 40°43' W 073°59'69 2.9
2017-Sep-27 17:52N 41°12' W 072°36'103 3.6
2017-Sep-26 13:42N 42°19' W 070°51'316.1
2017-Sep-26 13:30N 42°19' W 070°56'6 5.0
2017-Sep-26 12:23N 42°22' W 071°03'0 0.0
2017-Sep-25 23:20N 42°22' W 071°03'0 0.0
2017-Sep-25 22:50N 42°22' W 071°03'0 0.0
2017-Sep-25 22:05N 42°22' W 071°03'0 0.0
2017-Sep-25 21:58N 42°22' W 071°03'0 0.0
2017-Sep-25 21:25N 42°22' W 071°03'0 0.0
2017-Sep-25 20:59N 42°22' W 071°03'0 0.0
2017-Sep-25 20:29N 42°22' W 071°03'0 0.0
2017-Sep-25 15:22N 42°22' W 071°03'0 0.0
2017-Sep-25 14:53N 42°22' W 071°03'0 0.0
2017-Sep-25 13:59N 42°22' W 071°03'0 0.0
2017-Sep-25 13:17N 42°22' W 071°03'0 0.0
2017-Sep-25 12:35N 42°22' W 071°03'0 0.0
2017-Sep-25 12:26N 42°22' W 071°03'0 0.0
2017-Sep-25 11:47N 42°22' W 071°03'0 0.0
2017-Sep-25 11:11N 42°22' W 071°03'0 0.0
2017-Sep-25 10:59N 42°22' W 071°03'0 0.0
2017-Sep-25 07:29N 42°22' W 071°03'0 0.0
2017-Sep-25 06:59N 42°22' W 071°03'0 0.0
2017-Sep-25 04:11N 42°22' W 071°03'0 0.0
2017-Sep-25 03:11N 42°22' W 071°03'0 0.0
2017-Sep-25 02:59N 42°22' W 071°03'0 0.0
2017-Sep-25 02:29N 42°22' W 071°03'0 0.0
2017-Sep-25 01:59N 42°22' W 071°03'0 0.0
2017-Sep-25 01:29N 42°22' W 071°03'0 0.0
2017-Sep-25 00:59N 42°22' W 071°03'0 0.0
2017-Sep-25 00:29N 42°22' W 071°03'0 0.0
2017-Sep-24 23:59N 42°22' W 071°03'0 0.0
2017-Sep-24 20:46N 42°22' W 071°03'0 0.0
2017-Sep-24 20:23N 42°22' W 071°03'0 0.0
2017-Sep-24 19:59N 42°22' W 071°03'3 3.5
2017-Sep-24 19:15N 42°20' W 070°60'416.2
2017-Sep-24 19:01N 42°19' W 070°55'  
2017-Sep-21 15:47N 40°46' W 073°57'310.8
2017-Sep-21 15:30N 40°43' W 073°58'  
Track history (hours):
 
Tides and Currents Weather Stations Pressure Air Temp Water Temp Dewpoint Dewpoint Depression Visibility Wind Speed Wind Dir Waves Ship Positions

Scorpio

Owner: Bruno, Thomas R, Wayside, NJ. More information available from US FCC via Universal Licensing System and Coast Guard Vessel Documentation Center.

Last reported at 2017-Sep-28 18:01 UTC. Time now 2017-Oct-19 05:33 UTC.
Position N 40°35' W 074°02'.
Warning: this ship's position is 20 days out of date.

Type: Pleasure craft. MMSI: 367652050.

Date/timePositionNaut miles runAvg speedWind from/ knotsBaromVisibWave heightAir tempDewpointWater temp
2017-Sep-28 18:01N 40°35' W 074°02'017.2
2017-Sep-28 18:00N 40°36' W 074°02'714.7
2017-Sep-28 17:30N 40°43' W 073°59'69 2.9
2017-Sep-27 17:52N 41°12' W 072°36'103 3.6
2017-Sep-26 13:42N 42°19' W 070°51'316.1
2017-Sep-26 13:30N 42°19' W 070°56'6 5.0
2017-Sep-26 12:23N 42°22' W 071°03'0 0.0
2017-Sep-25 23:20N 42°22' W 071°03'0 0.0
2017-Sep-25 22:50N 42°22' W 071°03'0 0.0
2017-Sep-25 22:05N 42°22' W 071°03'0 0.0
2017-Sep-25 21:58N 42°22' W 071°03'0 0.0
2017-Sep-25 21:25N 42°22' W 071°03'0 0.0
2017-Sep-25 20:59N 42°22' W 071°03'0 0.0
2017-Sep-25 20:29N 42°22' W 071°03'0 0.0
2017-Sep-25 15:22N 42°22' W 071°03'0 0.0
2017-Sep-25 14:53N 42°22' W 071°03'0 0.0
2017-Sep-25 13:59N 42°22' W 071°03'0 0.0
2017-Sep-25 13:17N 42°22' W 071°03'0 0.0
2017-Sep-25 12:35N 42°22' W 071°03'0 0.0
2017-Sep-25 12:26N 42°22' W 071°03'0 0.0
2017-Sep-25 11:47N 42°22' W 071°03'0 0.0
2017-Sep-25 11:11N 42°22' W 071°03'0 0.0
2017-Sep-25 10:59N 42°22' W 071°03'0 0.0
2017-Sep-25 07:29N 42°22' W 071°03'0 0.0
2017-Sep-25 06:59N 42°22' W 071°03'0 0.0
2017-Sep-25 04:11N 42°22' W 071°03'0 0.0
2017-Sep-25 03:11N 42°22' W 071°03'0 0.0
2017-Sep-25 02:59N 42°22' W 071°03'0 0.0
2017-Sep-25 02:29N 42°22' W 071°03'0 0.0
2017-Sep-25 01:59N 42°22' W 071°03'0 0.0
2017-Sep-25 01:29N 42°22' W 071°03'0 0.0
2017-Sep-25 00:59N 42°22' W 071°03'0 0.0
2017-Sep-25 00:29N 42°22' W 071°03'0 0.0
2017-Sep-24 23:59N 42°22' W 071°03'0 0.0
2017-Sep-24 20:46N 42°22' W 071°03'0 0.0
2017-Sep-24 20:23N 42°22' W 071°03'0 0.0
2017-Sep-24 19:59N 42°22' W 071°03'3 3.5
2017-Sep-24 19:15N 42°20' W 070°60'416.2
2017-Sep-24 19:01N 42°19' W 070°55'  
2017-Sep-21 15:47N 40°46' W 073°57'310.8
2017-Sep-21 15:30N 40°43' W 073°58'  

Dump ship's entire track history